createdAt,value
2022-07-31T00:00:50.710Z,23.40
2022-07-31T00:03:18.109Z,23.40
2022-07-31T00:05:47.639Z,23.30
2022-07-31T00:08:15.069Z,23.20
2022-07-31T00:10:42.321Z,23.10
2022-07-31T00:13:10.450Z,23.00
2022-07-31T00:15:37.859Z,23.00
2022-07-31T00:18:05.210Z,22.90
2022-07-31T00:20:32.472Z,22.90
2022-07-31T00:23:01.900Z,23.00
2022-07-31T00:25:29.133Z,22.90
2022-07-31T00:27:56.442Z,22.90
2022-07-31T00:30:26.154Z,22.90
2022-07-31T00:32:55.906Z,22.90
2022-07-31T00:35:25.620Z,22.80
2022-07-31T00:38:02.219Z,22.80
2022-07-31T00:40:51.325Z,22.70
2022-07-31T00:43:21.645Z,22.70
2022-07-31T00:45:56.365Z,22.60
2022-07-31T00:48:31.530Z,22.60
2022-07-31T00:51:01.415Z,22.60
2022-07-31T00:53:28.834Z,22.60
2022-07-31T00:55:57.492Z,22.70
2022-07-31T00:58:27.779Z,22.70
2022-07-31T01:00:55.166Z,22.70
2022-07-31T01:03:32.812Z,22.70
2022-07-31T01:06:00.230Z,22.80
2022-07-31T01:08:29.809Z,22.90
2022-07-31T01:11:04.682Z,22.90
2022-07-31T01:13:47.945Z,22.80
2022-07-31T01:16:18.273Z,22.80
2022-07-31T01:18:48.411Z,22.90
2022-07-31T01:21:35.377Z,22.70
2022-07-31T01:24:14.927Z,22.70
2022-07-31T01:27:01.314Z,22.60
2022-07-31T01:29:44.851Z,22.40
2022-07-31T01:32:27.526Z,22.30
2022-07-31T01:35:05.312Z,22.20
2022-07-31T01:37:50.558Z,22.20
2022-07-31T01:40:25.975Z,22.10
2022-07-31T01:43:06.769Z,22.10
2022-07-31T01:45:36.610Z,22.10
2022-07-31T01:48:05.475Z,22.20
2022-07-31T01:50:42.142Z,22.20
2022-07-31T01:53:18.616Z,22.10
2022-07-31T01:56:02.651Z,22.10
2022-07-31T01:58:36.358Z,22.10
2022-07-31T02:01:08.904Z,22.00
2022-07-31T02:03:43.636Z,22.10
2022-07-31T02:06:21.627Z,22.20
2022-07-31T02:08:53.193Z,22.10
2022-07-31T02:11:21.418Z,21.90
2022-07-31T02:13:49.736Z,22.00
2022-07-31T02:16:22.429Z,22.00
2022-07-31T02:18:54.167Z,22.00
2022-07-31T02:21:22.093Z,21.90
2022-07-31T02:23:49.391Z,21.90
2022-07-31T02:26:17.639Z,21.90
2022-07-31T02:28:47.879Z,21.90
2022-07-31T02:31:18.394Z,22.00
2022-07-31T02:33:50.915Z,22.00
2022-07-31T02:36:23.289Z,22.00
2022-07-31T02:38:55.088Z,21.90
2022-07-31T02:41:23.974Z,21.80
2022-07-31T02:43:51.910Z,21.90
2022-07-31T02:46:19.957Z,21.80
2022-07-31T02:48:49.517Z,21.80
2022-07-31T02:51:17.806Z,21.80
2022-07-31T02:53:45.814Z,21.80
2022-07-31T02:56:15.817Z,21.90
2022-07-31T02:58:45.895Z,21.80
2022-07-31T03:01:14.427Z,21.80
2022-07-31T03:03:42.245Z,21.70
2022-07-31T03:06:09.628Z,21.70
2022-07-31T03:08:39.989Z,21.70
2022-07-31T03:11:08.416Z,21.80
2022-07-31T03:13:36.966Z,21.80
2022-07-31T03:16:11.787Z,21.90
2022-07-31T03:18:43.502Z,21.80
2022-07-31T03:21:14.131Z,21.90
2022-07-31T03:23:44.714Z,21.90
2022-07-31T03:26:12.358Z,21.80
2022-07-31T03:28:39.581Z,21.80
2022-07-31T03:31:10.305Z,21.60
2022-07-31T03:33:37.690Z,21.50
2022-07-31T03:36:05.488Z,21.50
2022-07-31T03:38:41.510Z,21.50
2022-07-31T03:41:14.437Z,21.60
2022-07-31T03:43:48.054Z,21.50
2022-07-31T03:46:20.826Z,21.40
2022-07-31T03:48:52.766Z,21.50
2022-07-31T03:51:21.142Z,21.50
2022-07-31T03:53:49.143Z,21.40
2022-07-31T03:56:20.353Z,21.50
2022-07-31T03:58:52.226Z,21.40
2022-07-31T04:01:21.094Z,21.40
2022-07-31T04:03:49.286Z,21.40
2022-07-31T04:06:16.546Z,21.50
2022-07-31T04:08:43.811Z,21.50
2022-07-31T04:11:11.192Z,21.40
2022-07-31T04:13:40.692Z,21.40
2022-07-31T04:16:07.956Z,21.40
2022-07-31T04:18:35.293Z,21.30
2022-07-31T04:21:05.250Z,21.40
2022-07-31T04:23:32.879Z,21.40
2022-07-31T04:26:00.742Z,21.40
2022-07-31T04:28:28.108Z,21.30
2022-07-31T04:30:55.406Z,21.30
2022-07-31T04:33:22.711Z,21.20
2022-07-31T04:35:50.022Z,21.40
2022-07-31T04:38:17.292Z,21.30
2022-07-31T04:40:50.663Z,21.20
2022-07-31T04:43:18.354Z,21.10
2022-07-31T04:45:45.896Z,21.10
2022-07-31T04:48:15.370Z,21.10
2022-07-31T04:50:45.503Z,21.10
2022-07-31T04:53:15.397Z,21.20
2022-07-31T04:55:42.928Z,21.30
2022-07-31T04:58:14.781Z,21.30
2022-07-31T05:00:44.210Z,21.30
2022-07-31T05:03:11.448Z,21.30
2022-07-31T05:05:39.130Z,21.30
2022-07-31T05:08:06.387Z,21.30
2022-07-31T05:10:54.691Z,21.30
2022-07-31T05:13:22.713Z,21.40
2022-07-31T05:15:52.062Z,21.40
2022-07-31T05:18:23.959Z,21.40
2022-07-31T05:20:51.222Z,21.60
2022-07-31T05:23:18.452Z,21.50
2022-07-31T05:25:47.956Z,21.50
2022-07-31T05:28:15.918Z,21.50
2022-07-31T05:30:46.498Z,21.50
2022-07-31T05:33:16.385Z,21.50
2022-07-31T05:35:46.135Z,21.50
2022-07-31T05:38:13.864Z,21.50
2022-07-31T05:40:42.391Z,21.50
2022-07-31T05:43:10.941Z,21.50
2022-07-31T05:45:42.984Z,21.50
2022-07-31T05:48:10.566Z,21.60
2022-07-31T05:50:40.534Z,21.60
2022-07-31T05:53:08.208Z,21.70
2022-07-31T05:55:40.400Z,21.60
2022-07-31T05:58:07.972Z,21.60
2022-07-31T06:00:35.658Z,21.70
2022-07-31T06:03:05.958Z,21.70
2022-07-31T06:05:33.592Z,21.70
2022-07-31T06:08:01.490Z,21.70
2022-07-31T06:10:31.530Z,21.70
2022-07-31T06:12:58.834Z,21.80
2022-07-31T06:15:36.093Z,21.90
2022-07-31T06:18:06.917Z,22.00
2022-07-31T06:20:34.378Z,22.00
2022-07-31T06:23:20.056Z,22.10
2022-07-31T06:25:52.553Z,22.20
2022-07-31T06:28:25.437Z,22.10
2022-07-31T06:31:17.270Z,22.20
2022-07-31T06:33:47.969Z,22.30
2022-07-31T06:36:19.554Z,22.30
2022-07-31T06:38:47.176Z,22.40
2022-07-31T06:41:33.198Z,22.40
2022-07-31T06:44:00.481Z,22.50
2022-07-31T06:46:30.056Z,22.50
2022-07-31T06:49:00.134Z,22.40
2022-07-31T06:51:31.185Z,22.40
2022-07-31T06:54:03.201Z,22.30
2022-07-31T06:56:31.349Z,22.50
2022-07-31T06:59:01.493Z,22.50
2022-07-31T07:01:29.578Z,22.60
2022-07-31T07:03:59.582Z,22.70
2022-07-31T07:06:30.831Z,22.60
2022-07-31T07:08:58.199Z,22.80
2022-07-31T07:11:25.974Z,22.90
2022-07-31T07:13:53.774Z,22.90
2022-07-31T07:16:21.097Z,22.90
2022-07-31T07:18:48.437Z,23.10
2022-07-31T07:21:16.283Z,23.00
2022-07-31T07:23:45.881Z,23.00
2022-07-31T07:26:13.665Z,23.00
2022-07-31T07:28:41.528Z,23.20
2022-07-31T07:31:08.836Z,23.30
2022-07-31T07:33:41.766Z,23.40
2022-07-31T07:36:21.754Z,23.40
2022-07-31T07:38:56.121Z,23.40
2022-07-31T07:41:26.823Z,23.50
2022-07-31T07:43:57.419Z,23.80
2022-07-31T07:46:25.423Z,23.90
2022-07-31T07:48:56.081Z,24.10
2022-07-31T07:51:23.418Z,24.20
2022-07-31T07:53:50.834Z,24.50
2022-07-31T07:56:18.460Z,24.70
2022-07-31T07:58:45.800Z,24.90
2022-07-31T08:01:15.713Z,25.00
2022-07-31T08:03:49.000Z,25.10
2022-07-31T08:06:22.583Z,25.10
2022-07-31T08:08:50.077Z,25.10
2022-07-31T08:11:20.255Z,25.10
2022-07-31T08:13:50.647Z,25.10
2022-07-31T08:16:20.184Z,25.00
2022-07-31T08:18:51.524Z,25.10
2022-07-31T08:21:21.927Z,25.30
2022-07-31T08:23:52.819Z,25.40
2022-07-31T08:26:20.058Z,25.50
2022-07-31T08:28:50.531Z,25.40
2022-07-31T08:31:21.297Z,25.40
2022-07-31T08:33:48.667Z,25.30
2022-07-31T08:36:16.149Z,25.30
2022-07-31T08:38:43.878Z,25.90
2022-07-31T08:41:14.317Z,26.80
2022-07-31T08:44:02.254Z,27.10
2022-07-31T08:46:29.599Z,27.00
2022-07-31T08:48:58.063Z,27.10
2022-07-31T08:51:28.814Z,27.80
2022-07-31T08:53:57.526Z,28.40
2022-07-31T08:56:27.293Z,28.60
2022-07-31T08:58:57.060Z,28.80
2022-07-31T09:01:24.735Z,28.70
2022-07-31T09:03:53.076Z,28.60
2022-07-31T09:06:20.630Z,28.50
2022-07-31T09:08:48.123Z,28.60
2022-07-31T09:11:18.818Z,29.10
2022-07-31T09:14:04.381Z,29.60
2022-07-31T09:16:44.092Z,29.90
2022-07-31T09:19:53.881Z,29.70
2022-07-31T09:21:58.747Z,29.40
2022-07-31T09:24:32.249Z,29.50
2022-07-31T09:27:09.374Z,29.60
2022-07-31T09:29:38.737Z,29.30
2022-07-31T09:32:09.883Z,29.30
2022-07-31T09:34:37.267Z,29.50
2022-07-31T09:37:12.509Z,29.80
2022-07-31T09:39:52.485Z,29.90
2022-07-31T09:42:21.528Z,30.10
2022-07-31T09:44:51.142Z,30.10
2022-07-31T09:47:28.995Z,29.90
2022-07-31T09:50:01.824Z,29.70
2022-07-31T09:52:31.507Z,29.40
2022-07-31T09:55:16.954Z,29.40
2022-07-31T09:57:57.517Z,29.20
2022-07-31T10:00:28.338Z,29.00
2022-07-31T10:02:56.866Z,28.50
2022-07-31T10:05:27.800Z,28.10
2022-07-31T10:08:17.557Z,27.90
2022-07-31T10:10:46.390Z,27.70
2022-07-31T10:13:15.899Z,28.10
2022-07-31T10:15:46.873Z,28.10
2022-07-31T10:18:17.831Z,27.80
2022-07-31T10:21:09.340Z,27.60
2022-07-31T10:23:41.039Z,27.70
2022-07-31T10:26:08.482Z,27.80
2022-07-31T10:28:44.567Z,27.90
2022-07-31T10:31:13.222Z,28.10
2022-07-31T10:33:43.934Z,28.40
2022-07-31T10:36:21.222Z,28.50
2022-07-31T10:38:56.432Z,28.60
2022-07-31T10:42:06.601Z,28.90
2022-07-31T10:44:45.630Z,29.20
2022-07-31T10:47:17.663Z,28.80
2022-07-31T10:49:52.172Z,28.60
2022-07-31T10:52:28.581Z,28.30
2022-07-31T10:54:58.596Z,28.10
2022-07-31T10:57:28.681Z,27.80
2022-07-31T10:59:56.023Z,27.60
2022-07-31T11:02:31.703Z,27.50
2022-07-31T11:05:23.361Z,27.40
2022-07-31T11:08:07.785Z,27.40
2022-07-31T11:10:49.249Z,27.50
2022-07-31T11:13:18.723Z,27.50
2022-07-31T11:15:46.365Z,27.80
2022-07-31T11:18:25.127Z,28.60
2022-07-31T11:21:22.332Z,29.20
2022-07-31T11:23:55.998Z,29.70
2022-07-31T11:26:32.745Z,29.60
2022-07-31T11:29:59.507Z,29.00
2022-07-31T11:32:25.316Z,28.70
2022-07-31T11:34:55.093Z,28.50
2022-07-31T11:37:45.920Z,28.20
2022-07-31T11:40:14.591Z,27.80
2022-07-31T11:42:43.750Z,27.50
2022-07-31T11:45:12.498Z,27.40
2022-07-31T11:48:11.168Z,27.70
2022-07-31T11:50:32.385Z,27.60
2022-07-31T11:53:04.827Z,27.70
2022-07-31T11:55:32.191Z,28.00
2022-07-31T11:58:00.003Z,28.10
2022-07-31T12:00:30.183Z,28.00
2022-07-31T12:02:58.592Z,27.80
2022-07-31T12:05:37.926Z,27.60
2022-07-31T12:08:08.077Z,27.40
2022-07-31T12:10:35.598Z,27.40
2022-07-31T12:13:03.323Z,27.70
2022-07-31T12:15:31.156Z,28.00
2022-07-31T12:18:11.276Z,28.50
2022-07-31T12:20:38.612Z,28.80
2022-07-31T12:23:40.918Z,28.80
2022-07-31T12:25:57.364Z,28.50
2022-07-31T12:28:27.213Z,28.40
2022-07-31T12:31:02.307Z,28.50
2022-07-31T12:33:43.796Z,28.60
2022-07-31T12:36:16.205Z,28.70
2022-07-31T12:38:48.857Z,28.50
2022-07-31T12:41:16.977Z,28.50
2022-07-31T12:43:50.892Z,28.50
2022-07-31T12:46:38.517Z,28.30
2022-07-31T12:49:06.674Z,28.20
2022-07-31T12:51:44.667Z,28.30
2022-07-31T12:54:16.607Z,28.40
2022-07-31T12:56:48.120Z,28.30
2022-07-31T12:59:15.427Z,28.20
2022-07-31T13:01:42.884Z,28.00
2022-07-31T13:04:19.064Z,28.00
2022-07-31T13:07:00.793Z,28.00
2022-07-31T13:09:31.233Z,27.90
2022-07-31T13:12:00.638Z,27.80
2022-07-31T13:14:33.624Z,27.80
2022-07-31T13:17:01.058Z,28.00
2022-07-31T13:19:28.488Z,28.10
2022-07-31T13:21:56.911Z,28.00
2022-07-31T13:24:24.675Z,27.90
2022-07-31T13:26:54.457Z,27.90
2022-07-31T13:29:21.798Z,27.70
2022-07-31T13:31:51.604Z,27.60
2022-07-31T13:34:19.080Z,27.30
2022-07-31T13:36:48.564Z,27.10
2022-07-31T13:39:15.942Z,27.00
2022-07-31T13:41:46.432Z,27.00
2022-07-31T13:44:13.970Z,27.00
2022-07-31T13:46:41.282Z,27.00
2022-07-31T13:49:09.323Z,27.20
2022-07-31T13:51:38.029Z,27.40
2022-07-31T13:54:10.031Z,27.60
2022-07-31T13:56:42.973Z,28.00
2022-07-31T13:59:12.668Z,28.20
2022-07-31T14:02:03.446Z,28.20
2022-07-31T14:04:32.811Z,28.00
2022-07-31T14:07:06.647Z,27.90
2022-07-31T14:09:34.865Z,27.90
2022-07-31T14:12:04.459Z,27.80
2022-07-31T14:14:32.631Z,27.60
2022-07-31T14:17:00.076Z,27.50
2022-07-31T14:19:44.248Z,27.60
2022-07-31T14:22:11.942Z,27.80
2022-07-31T14:24:51.400Z,28.00
2022-07-31T14:27:21.175Z,28.10
2022-07-31T14:29:51.443Z,28.00
2022-07-31T14:32:19.396Z,27.90
2022-07-31T14:34:46.894Z,27.70
2022-07-31T14:37:16.330Z,27.60
2022-07-31T14:39:43.709Z,27.60
2022-07-31T14:42:11.726Z,27.60
2022-07-31T14:44:42.168Z,27.50
2022-07-31T14:47:14.012Z,27.40
2022-07-31T14:50:07.922Z,27.40
2022-07-31T14:52:29.956Z,27.50
2022-07-31T14:55:00.667Z,27.50
2022-07-31T14:57:29.802Z,27.40
2022-07-31T15:00:00.468Z,27.30
2022-07-31T15:02:28.376Z,27.30
2022-07-31T15:04:55.747Z,27.30
2022-07-31T15:07:35.367Z,27.10
2022-07-31T15:10:08.191Z,27.10
2022-07-31T15:12:35.624Z,27.10
2022-07-31T15:15:03.119Z,27.00
2022-07-31T15:17:32.484Z,27.00
2022-07-31T15:19:59.728Z,27.00
2022-07-31T15:22:27.252Z,27.00
2022-07-31T15:24:54.702Z,26.90
2022-07-31T15:27:24.931Z,26.70
2022-07-31T15:30:05.703Z,26.80
2022-07-31T15:32:37.077Z,26.70
2022-07-31T15:35:06.829Z,26.70
2022-07-31T15:37:35.989Z,26.80
2022-07-31T15:40:10.521Z,26.70
2022-07-31T15:42:42.636Z,26.60
2022-07-31T15:45:17.697Z,26.60
2022-07-31T15:47:46.094Z,26.50
2022-07-31T15:50:16.327Z,26.40
2022-07-31T15:52:43.649Z,26.40
2022-07-31T15:55:11.649Z,26.40
2022-07-31T15:57:45.633Z,26.30
2022-07-31T16:00:15.593Z,26.30
2022-07-31T16:02:45.712Z,26.30
2022-07-31T16:05:32.961Z,26.20
2022-07-31T16:08:28.944Z,26.10
2022-07-31T16:10:56.100Z,26.10
2022-07-31T16:13:27.185Z,26.10
2022-07-31T16:15:55.495Z,26.20
2022-07-31T16:18:24.900Z,26.20
2022-07-31T16:20:52.985Z,26.20
2022-07-31T16:23:21.462Z,26.30
2022-07-31T16:25:51.165Z,26.30
2022-07-31T16:28:19.016Z,26.40
2022-07-31T16:30:46.663Z,26.50
2022-07-31T16:33:14.393Z,26.40
2022-07-31T16:35:44.509Z,26.40
2022-07-31T16:38:11.841Z,26.40
2022-07-31T16:40:39.118Z,26.50
2022-07-31T16:43:48.531Z,26.50
2022-07-31T16:45:59.460Z,26.50
2022-07-31T16:48:26.789Z,26.50
2022-07-31T16:50:54.994Z,26.40
2022-07-31T16:54:10.637Z,26.30
2022-07-31T16:56:15.503Z,26.30
2022-07-31T16:58:44.076Z,26.30
2022-07-31T17:01:57.774Z,26.10
2022-07-31T17:04:04.359Z,26.10
2022-07-31T17:06:38.046Z,26.10
2022-07-31T17:09:16.265Z,26.00
2022-07-31T17:11:53.722Z,25.90
2022-07-31T17:14:25.533Z,25.80
2022-07-31T17:16:57.261Z,25.80
2022-07-31T17:19:42.464Z,25.80
2022-07-31T17:22:17.886Z,25.70
2022-07-31T17:24:50.880Z,25.60
2022-07-31T17:27:22.499Z,25.50
2022-07-31T17:29:50.501Z,25.50
2022-07-31T17:32:18.397Z,25.50
2022-07-31T17:34:46.382Z,25.40
2022-07-31T17:37:14.268Z,25.40
2022-07-31T17:39:41.978Z,25.40
2022-07-31T17:42:12.265Z,25.30
2022-07-31T17:44:40.182Z,25.20
2022-07-31T17:47:19.035Z,25.20
2022-07-31T17:49:47.395Z,25.10
2022-07-31T17:52:16.461Z,25.10
2022-07-31T17:54:43.843Z,25.00
2022-07-31T17:57:11.109Z,24.90
2022-07-31T17:59:42.793Z,24.70
2022-07-31T18:02:10.715Z,24.70
2022-07-31T18:04:38.210Z,24.80
2022-07-31T18:07:07.194Z,24.80
2022-07-31T18:09:36.508Z,24.90
2022-07-31T18:12:05.131Z,25.00
2022-07-31T18:14:35.265Z,25.00
2022-07-31T18:17:02.632Z,24.90
2022-07-31T18:19:30.004Z,24.80
2022-07-31T18:21:58.555Z,24.70
2022-07-31T18:24:26.301Z,24.60
2022-07-31T18:26:54.086Z,24.50
2022-07-31T18:29:21.729Z,24.60
2022-07-31T18:31:51.602Z,24.50
2022-07-31T18:34:18.943Z,24.50
2022-07-31T18:36:46.428Z,24.60
2022-07-31T18:39:13.720Z,24.40
2022-07-31T18:41:49.107Z,24.50
2022-07-31T18:44:16.820Z,24.40
2022-07-31T18:46:47.133Z,24.40
2022-07-31T18:51:01.942Z,24.30
2022-07-31T18:52:04.741Z,24.40
2022-07-31T18:54:32.326Z,24.30
2022-07-31T18:57:00.352Z,24.30
2022-07-31T18:59:27.674Z,24.20
2022-07-31T19:01:59.739Z,24.10
2022-07-31T19:04:29.422Z,24.00
2022-07-31T19:06:56.820Z,23.90
2022-07-31T19:09:25.274Z,24.00
2022-07-31T19:11:55.876Z,24.00
2022-07-31T19:14:26.329Z,23.90
2022-07-31T19:16:57.870Z,24.00
2022-07-31T19:19:25.852Z,24.00
2022-07-31T19:22:05.963Z,24.10
2022-07-31T19:24:35.899Z,24.10
2022-07-31T19:27:03.316Z,24.00
2022-07-31T19:29:32.866Z,24.00
2022-07-31T19:32:01.501Z,24.00
2022-07-31T19:34:28.901Z,23.90
2022-07-31T19:36:56.329Z,23.90
2022-07-31T19:39:23.632Z,24.00
2022-07-31T19:42:11.644Z,24.00
2022-07-31T19:44:38.306Z,24.00
2022-07-31T19:47:08.237Z,23.80
2022-07-31T19:49:38.388Z,23.70
2022-07-31T19:52:10.699Z,23.50
2022-07-31T19:54:39.769Z,23.50
2022-07-31T19:57:11.783Z,23.50
2022-07-31T19:59:39.600Z,23.50
2022-07-31T20:02:11.176Z,23.60
2022-07-31T20:04:40.124Z,23.60
2022-07-31T20:07:07.364Z,23.60
2022-07-31T20:09:37.452Z,23.70
2022-07-31T20:12:05.705Z,23.60
2022-07-31T20:14:33.233Z,23.60
2022-07-31T20:17:00.586Z,23.60
2022-07-31T20:19:31.076Z,23.60
2022-07-31T20:21:58.608Z,23.50
2022-07-31T20:24:27.116Z,23.50
2022-07-31T20:26:54.465Z,23.30
2022-07-31T20:29:24.930Z,23.30
2022-07-31T20:31:55.322Z,23.30
2022-07-31T20:34:23.360Z,23.30
2022-07-31T20:36:55.252Z,23.20
2022-07-31T20:39:33.290Z,23.30
2022-07-31T20:42:01.154Z,23.40
2022-07-31T20:44:31.213Z,23.40
2022-07-31T20:46:58.539Z,23.30
2022-07-31T20:49:34.855Z,23.40
2022-07-31T20:52:04.990Z,23.50
2022-07-31T20:54:34.212Z,23.50
2022-07-31T20:57:02.421Z,23.50
2022-07-31T20:59:32.451Z,23.50
2022-07-31T21:01:59.879Z,23.50
2022-07-31T21:04:27.607Z,23.50
2022-07-31T21:06:55.110Z,23.50
2022-07-31T21:09:23.001Z,23.50
2022-07-31T21:11:52.931Z,23.40
2022-07-31T21:14:20.845Z,23.50
2022-07-31T21:16:50.576Z,23.50
2022-07-31T21:19:20.684Z,23.50
2022-07-31T21:21:48.064Z,23.50
2022-07-31T21:24:15.976Z,23.50
2022-07-31T21:26:47.704Z,23.50
2022-07-31T21:29:18.817Z,23.50
2022-07-31T21:31:50.001Z,23.60
2022-07-31T21:34:20.388Z,23.60
2022-07-31T21:36:48.204Z,23.50
2022-07-31T21:39:18.935Z,23.40
2022-07-31T21:41:46.818Z,23.40
2022-07-31T21:44:16.328Z,23.50
2022-07-31T21:46:51.745Z,23.60
2022-07-31T21:49:22.613Z,23.60
2022-07-31T21:51:53.186Z,23.50
2022-07-31T21:54:23.104Z,23.60
2022-07-31T21:56:52.517Z,23.60
2022-07-31T21:59:22.352Z,23.70
2022-07-31T22:01:58.051Z,23.70
2022-07-31T22:04:34.399Z,23.80
2022-07-31T22:07:23.089Z,23.80
2022-07-31T22:09:50.911Z,23.80
2022-07-31T22:12:18.216Z,23.70
2022-07-31T22:14:46.067Z,23.70
2022-07-31T22:17:16.060Z,23.60
2022-07-31T22:19:45.252Z,23.70
2022-07-31T22:22:18.139Z,23.40
2022-07-31T22:24:46.103Z,23.30
2022-07-31T22:27:32.921Z,23.30
2022-07-31T22:30:03.218Z,23.20
2022-07-31T22:32:31.144Z,23.10
2022-07-31T22:35:03.840Z,23.10
2022-07-31T22:37:31.561Z,23.00
2022-07-31T22:40:02.685Z,23.10
2022-07-31T22:42:30.016Z,23.00
2022-07-31T22:44:57.926Z,23.00
2022-07-31T22:47:27.163Z,22.90
2022-07-31T22:49:55.546Z,22.90
2022-07-31T22:52:25.070Z,22.90
2022-07-31T22:55:04.223Z,23.00
2022-07-31T22:57:32.214Z,23.00
2022-07-31T23:00:06.009Z,23.10
2022-07-31T23:02:33.453Z,23.10
2022-07-31T23:05:00.786Z,23.00
2022-07-31T23:07:30.331Z,23.00
2022-07-31T23:09:58.274Z,22.90
2022-07-31T23:12:30.733Z,22.90
2022-07-31T23:14:58.065Z,22.90
2022-07-31T23:17:25.417Z,22.90
2022-07-31T23:19:55.309Z,22.90
2022-07-31T23:22:33.266Z,22.90
2022-07-31T23:25:05.790Z,22.80
2022-07-31T23:27:33.783Z,23.00
2022-07-31T23:30:03.332Z,23.00
2022-07-31T23:32:30.703Z,23.10
2022-07-31T23:34:58.161Z,23.10
2022-07-31T23:37:25.419Z,23.10
2022-07-31T23:39:54.996Z,23.00
2022-07-31T23:42:40.306Z,23.00
2022-07-31T23:45:11.308Z,23.10
2022-07-31T23:47:45.492Z,23.10
2022-07-31T23:50:15.680Z,23.10
2022-07-31T23:52:44.268Z,23.00
2022-07-31T23:55:12.939Z,22.90
2022-07-31T23:57:40.815Z,22.90
